createdAt,value
2018-09-25T00:00:44.860Z,77.16
2018-09-25T00:01:27.967Z,76.97
2018-09-25T00:02:12.055Z,76.29
2018-09-25T00:02:55.156Z,77.14
2018-09-25T00:03:38.210Z,76.03
2018-09-25T00:04:21.820Z,75.96
2018-09-25T00:05:11.927Z,76.39
2018-09-25T00:05:55.136Z,75.27
2018-09-25T00:06:40.617Z,75.60
2018-09-25T00:07:24.532Z,75.60
2018-09-25T00:08:07.629Z,74.88
2018-09-25T00:08:51.763Z,76.10
2018-09-25T00:09:36.086Z,76.32
2018-09-25T00:10:19.365Z,74.85
2018-09-25T00:11:02.465Z,75.01
2018-09-25T00:11:45.344Z,75.06
2018-09-25T00:12:29.674Z,74.59
2018-09-25T00:13:12.589Z,74.72
2018-09-25T00:13:55.619Z,74.34
2018-09-25T00:14:38.505Z,74.58
2018-09-25T00:15:21.599Z,73.88
2018-09-25T00:16:05.536Z,73.76
2018-09-25T00:16:49.467Z,74.16
2018-09-25T00:17:32.111Z,73.46
2018-09-25T00:18:14.769Z,74.50
2018-09-25T00:18:58.228Z,73.60
2018-09-25T00:19:42.235Z,73.92
2018-09-25T00:20:24.879Z,74.36
2018-09-25T00:21:07.762Z,73.03
2018-09-25T00:21:50.100Z,72.77
2018-09-25T00:22:32.026Z,72.81
2018-09-25T00:23:14.316Z,72.60
2018-09-25T00:23:57.481Z,72.99
2018-09-25T00:24:39.462Z,72.42
2018-09-25T00:25:21.569Z,71.71
2018-09-25T00:26:03.739Z,71.62
2018-09-25T00:26:45.739Z,72.75
2018-09-25T00:27:27.782Z,71.91
2018-09-25T00:28:09.885Z,72.63
2018-09-25T00:28:52.143Z,71.57
2018-09-25T00:29:34.082Z,72.24
2018-09-25T00:30:16.169Z,72.87
2018-09-25T00:30:57.964Z,71.51
2018-09-25T00:31:40.023Z,71.63
2018-09-25T00:32:22.187Z,72.41
2018-09-25T00:33:05.129Z,72.33
2018-09-25T00:33:47.441Z,72.39
2018-09-25T00:34:29.512Z,72.39
2018-09-25T00:35:11.611Z,72.63
2018-09-25T00:35:53.887Z,72.77
2018-09-25T00:36:35.900Z,71.46
2018-09-25T00:37:18.144Z,71.44
2018-09-25T00:38:00.134Z,72.44
2018-09-25T00:38:41.914Z,71.68
2018-09-25T00:39:24.900Z,71.56
2018-09-25T00:40:06.790Z,71.58
2018-09-25T00:40:48.774Z,70.27
2018-09-25T00:41:30.760Z,71.07
2018-09-25T00:42:12.978Z,70.63
2018-09-25T00:42:55.104Z,69.80
2018-09-25T00:43:37.149Z,70.45
2018-09-25T00:44:19.118Z,69.85
2018-09-25T00:45:01.973Z,70.37
2018-09-25T00:45:46.584Z,68.58
2018-09-25T00:46:28.622Z,68.03
2018-09-25T00:47:11.685Z,67.49
2018-09-25T00:47:54.645Z,67.38
2018-09-25T00:48:37.714Z,67.55
2018-09-25T00:49:19.695Z,66.66
2018-09-25T00:50:01.768Z,66.06
2018-09-25T00:50:43.937Z,65.42
2018-09-25T00:51:26.009Z,65.45
2018-09-25T00:52:08.163Z,64.78
2018-09-25T00:52:50.330Z,65.16
2018-09-25T00:53:32.341Z,64.75
2018-09-25T00:54:15.303Z,64.50
2018-09-25T00:54:57.188Z,64.33
2018-09-25T00:55:39.095Z,64.30
2018-09-25T00:56:24.145Z,64.15
2018-09-25T00:57:06.117Z,63.81
2018-09-25T00:57:48.204Z,63.66
2018-09-25T00:58:30.141Z,63.62
2018-09-25T00:59:16.650Z,63.46
2018-09-25T00:59:58.925Z,63.24
2018-09-25T01:00:40.899Z,63.29
2018-09-25T01:01:23.062Z,62.72
2018-09-25T01:02:05.363Z,62.68
2018-09-25T01:02:47.329Z,62.35
2018-09-25T01:03:29.304Z,62.24
2018-09-25T01:04:11.334Z,62.15
2018-09-25T01:04:53.380Z,62.20
2018-09-25T01:05:35.472Z,62.50
2018-09-25T01:06:17.468Z,62.27
2018-09-25T01:06:59.436Z,61.98
2018-09-25T01:07:41.813Z,62.00
2018-09-25T01:08:23.923Z,62.14
2018-09-25T01:09:05.800Z,62.38
2018-09-25T01:09:47.646Z,62.12
2018-09-25T01:10:30.661Z,61.84
2018-09-25T01:11:12.601Z,61.97
2018-09-25T01:11:54.760Z,61.37
2018-09-25T01:12:36.822Z,61.10
2018-09-25T01:13:18.821Z,61.30
2018-09-25T01:14:00.874Z,60.99
2018-09-25T01:14:43.824Z,60.80
2018-09-25T01:15:25.753Z,60.42
2018-09-25T01:16:07.931Z,60.45
2018-09-25T01:16:50.152Z,61.25
2018-09-25T01:17:32.170Z,60.68
2018-09-25T01:18:14.175Z,61.01
2018-09-25T01:18:56.353Z,60.42
2018-09-25T01:19:38.551Z,60.73
2018-09-25T01:20:21.119Z,60.97
2018-09-25T01:21:03.074Z,61.19
2018-09-25T01:21:45.284Z,60.80
2018-09-25T01:22:27.316Z,60.31
2018-09-25T01:23:09.237Z,60.49
2018-09-25T01:23:52.121Z,60.56
2018-09-25T01:24:35.456Z,60.64
2018-09-25T01:25:18.387Z,60.62
2018-09-25T01:26:00.176Z,60.52
2018-09-25T01:26:42.993Z,60.91
2018-09-25T01:27:24.881Z,60.99
2018-09-25T01:28:07.848Z,60.86
2018-09-25T01:28:49.720Z,60.62
2018-09-25T01:29:31.864Z,60.63
2018-09-25T01:30:13.782Z,60.53
2018-09-25T01:30:56.228Z,61.15
2018-09-25T01:31:38.469Z,61.20
2018-09-25T01:32:20.697Z,61.39
2018-09-25T01:33:03.626Z,60.75
2018-09-25T01:33:45.595Z,61.15
2018-09-25T01:34:27.941Z,61.33
2018-09-25T01:35:09.895Z,61.39
2018-09-25T01:35:52.882Z,61.72
2018-09-25T01:36:35.201Z,62.18
2018-09-25T01:37:17.187Z,61.93
2018-09-25T01:37:59.092Z,62.29
2018-09-25T01:38:41.774Z,62.23
2018-09-25T01:39:23.951Z,62.40
2018-09-25T01:40:06.111Z,62.70
2018-09-25T01:40:48.300Z,62.44
2018-09-25T01:41:30.290Z,63.27
2018-09-25T01:42:12.361Z,63.48
2018-09-25T01:42:54.368Z,63.58
2018-09-25T01:43:36.346Z,63.79
2018-09-25T01:44:18.571Z,64.49
2018-09-25T01:45:00.564Z,64.65
2018-09-25T01:45:42.534Z,64.54
2018-09-25T01:46:24.545Z,65.01
2018-09-25T01:47:06.407Z,64.67
2018-09-25T01:47:48.331Z,64.82
2018-09-25T01:48:30.260Z,64.71
2018-09-25T01:49:12.933Z,65.13
2018-09-25T01:49:54.811Z,64.89
2018-09-25T01:50:37.579Z,64.69
2018-09-25T01:51:19.553Z,64.79
2018-09-25T01:52:01.513Z,65.04
2018-09-25T01:52:46.067Z,65.11
2018-09-25T01:53:27.864Z,65.52
2018-09-25T01:54:09.872Z,65.42
2018-09-25T01:54:51.732Z,65.33
2018-09-25T01:55:35.876Z,65.42
2018-09-25T01:56:18.243Z,65.35
2018-09-25T01:57:00.142Z,65.47
2018-09-25T01:57:42.050Z,65.34
2018-09-25T01:58:23.892Z,65.54
2018-09-25T01:59:05.848Z,65.45
2018-09-25T01:59:47.875Z,65.23
2018-09-25T02:00:30.241Z,65.15
2018-09-25T02:01:12.439Z,65.03
2018-09-25T02:01:54.437Z,65.30
2018-09-25T02:02:36.283Z,65.37
2018-09-25T02:03:18.219Z,65.57
2018-09-25T02:04:00.132Z,65.72
2018-09-25T02:04:42.041Z,65.63
2018-09-25T02:05:24.103Z,65.46
2018-09-25T02:06:06.386Z,65.50
2018-09-25T02:06:48.672Z,65.52
2018-09-25T02:07:31.008Z,65.55
2018-09-25T02:08:13.432Z,65.86
2018-09-25T02:08:55.423Z,65.96
2018-09-25T02:09:37.428Z,66.03
2018-09-25T02:10:19.366Z,66.01
2018-09-25T02:11:06.383Z,66.43
2018-09-25T02:11:48.404Z,66.73
2018-09-25T02:12:30.208Z,66.58
2018-09-25T02:13:12.477Z,66.89
2018-09-25T02:13:55.107Z,66.46
2018-09-25T02:14:37.293Z,66.61
2018-09-25T02:15:23.814Z,66.97
2018-09-25T02:16:06.271Z,66.80
2018-09-25T02:16:48.050Z,66.37
2018-09-25T02:17:31.032Z,67.12
2018-09-25T02:18:13.370Z,67.03
2018-09-25T02:19:01.393Z,66.61
2018-09-25T02:20:00.045Z,66.80
2018-09-25T02:20:42.767Z,66.90
2018-09-25T02:21:25.772Z,66.19
2018-09-25T02:22:12.099Z,66.05
2018-09-25T02:22:54.316Z,66.23
2018-09-25T02:23:36.179Z,66.58
2018-09-25T02:24:20.113Z,66.09
2018-09-25T02:25:02.203Z,65.62
2018-09-25T02:25:45.344Z,65.78
2018-09-25T02:26:33.618Z,65.56
2018-09-25T02:27:16.585Z,65.58
2018-09-25T02:27:58.583Z,65.23
2018-09-25T02:28:40.466Z,64.60
2018-09-25T02:29:22.462Z,64.34
2018-09-25T02:30:05.430Z,64.08
2018-09-25T02:30:47.411Z,63.98
2018-09-25T02:31:29.299Z,63.12
2018-09-25T02:32:12.206Z,62.68
2018-09-25T02:32:54.331Z,62.01
2018-09-25T02:33:36.404Z,61.80
2018-09-25T02:34:22.392Z,61.20
2018-09-25T02:35:04.283Z,60.92
2018-09-25T02:35:47.098Z,59.29
2018-09-25T02:36:33.337Z,60.02
2018-09-25T02:37:15.313Z,59.26
2018-09-25T02:37:57.164Z,59.15
2018-09-25T02:38:39.123Z,60.09
2018-09-25T02:39:21.263Z,58.32
2018-09-25T02:40:03.447Z,58.50
2018-09-25T02:40:45.223Z,58.13
2018-09-25T02:41:27.354Z,58.39
2018-09-25T02:42:09.519Z,56.90
2018-09-25T02:42:51.430Z,56.99
2018-09-25T02:43:33.230Z,56.85
2018-09-25T02:44:15.392Z,56.73
2018-09-25T02:44:57.332Z,56.54
2018-09-25T02:45:39.266Z,56.52
2018-09-25T02:46:21.303Z,56.84
2018-09-25T02:47:03.271Z,57.19
2018-09-25T02:47:45.213Z,57.26
2018-09-25T02:48:28.185Z,56.72
2018-09-25T02:49:10.011Z,57.07
2018-09-25T02:49:52.116Z,56.77
2018-09-25T02:50:34.279Z,56.08
2018-09-25T02:51:16.685Z,57.39
2018-09-25T02:51:58.794Z,56.31
2018-09-25T02:52:40.616Z,56.54
2018-09-25T02:53:22.441Z,56.95
2018-09-25T02:54:04.815Z,57.06
2018-09-25T02:54:46.633Z,57.63
2018-09-25T02:55:28.944Z,56.82
2018-09-25T02:56:11.139Z,56.76
2018-09-25T02:56:53.085Z,56.83
2018-09-25T02:57:35.173Z,56.76
2018-09-25T02:58:17.151Z,57.94
2018-09-25T02:58:59.064Z,57.96
2018-09-25T02:59:40.969Z,58.50
2018-09-25T03:00:22.939Z,58.80
2018-09-25T03:01:05.257Z,59.09
2018-09-25T03:01:47.833Z,58.86
2018-09-25T03:02:30.250Z,58.89
2018-09-25T03:03:12.289Z,58.37
2018-09-25T03:03:54.429Z,58.59
2018-09-25T03:04:36.431Z,58.81
2018-09-25T03:05:18.394Z,59.15
2018-09-25T03:06:00.309Z,58.86
2018-09-25T03:06:42.170Z,59.88
2018-09-25T03:07:24.004Z,59.66
2018-09-25T03:08:06.064Z,59.93
2018-09-25T03:08:48.065Z,59.83
2018-09-25T03:09:30.349Z,59.61
2018-09-25T03:10:12.886Z,60.48
2018-09-25T03:10:54.814Z,60.38
2018-09-25T03:11:37.963Z,60.73
2018-09-25T03:12:20.692Z,60.71
2018-09-25T03:13:02.701Z,61.21
2018-09-25T03:13:44.677Z,61.47
2018-09-25T03:14:26.746Z,61.37
2018-09-25T03:15:08.714Z,61.71
2018-09-25T03:15:50.531Z,61.88
2018-09-25T03:16:32.494Z,62.21
2018-09-25T03:17:20.289Z,61.93
2018-09-25T03:18:02.190Z,61.84
2018-09-25T03:18:44.401Z,61.63
2018-09-25T03:19:26.607Z,61.17
2018-09-25T03:20:08.501Z,61.37
2018-09-25T03:20:50.383Z,61.97
2018-09-25T03:21:32.397Z,61.43
2018-09-25T03:22:14.303Z,61.50
2018-09-25T03:22:56.332Z,61.49
2018-09-25T03:23:38.431Z,61.33
2018-09-25T03:24:20.855Z,61.53
2018-09-25T03:25:02.857Z,61.43
2018-09-25T03:25:44.796Z,62.01
2018-09-25T03:26:26.716Z,62.45
2018-09-25T03:27:08.848Z,62.36
2018-09-25T03:27:50.711Z,62.64
2018-09-25T03:28:32.802Z,62.63
2018-09-25T03:29:14.740Z,62.41
2018-09-25T03:29:56.818Z,62.19
2018-09-25T03:30:39.797Z,62.55
2018-09-25T03:31:21.659Z,62.63
2018-09-25T03:32:03.499Z,62.79
2018-09-25T03:32:45.504Z,63.05
2018-09-25T03:33:27.435Z,63.07
2018-09-25T03:34:09.394Z,62.79
2018-09-25T03:34:51.691Z,63.03
2018-09-25T03:35:33.874Z,63.12
2018-09-25T03:36:15.768Z,63.13
2018-09-25T03:36:57.731Z,63.11
2018-09-25T03:37:40.620Z,62.88
2018-09-25T03:38:22.580Z,63.11
2018-09-25T03:39:04.587Z,63.08
2018-09-25T03:39:46.448Z,63.25
2018-09-25T03:40:28.639Z,63.29
2018-09-25T03:41:10.626Z,63.37
2018-09-25T03:41:52.816Z,63.68
2018-09-25T03:42:34.920Z,63.35
2018-09-25T03:43:16.947Z,63.67
2018-09-25T03:44:01.672Z,63.43
2018-09-25T03:44:45.267Z,63.92
2018-09-25T03:45:27.845Z,63.33
2018-09-25T03:46:09.896Z,63.29
2018-09-25T03:46:52.068Z,63.23
2018-09-25T03:47:34.972Z,63.48
2018-09-25T03:48:16.858Z,62.88
2018-09-25T03:48:58.944Z,62.82
2018-09-25T03:49:41.832Z,63.17
2018-09-25T03:50:23.813Z,63.12
2018-09-25T03:51:05.817Z,62.63
2018-09-25T03:51:47.675Z,62.49
2018-09-25T03:52:29.513Z,63.04
2018-09-25T03:53:11.576Z,62.44
2018-09-25T03:53:53.676Z,62.55
2018-09-25T03:54:35.811Z,62.79
2018-09-25T03:55:17.867Z,63.00
2018-09-25T03:55:59.763Z,62.83
2018-09-25T03:56:41.885Z,63.54
2018-09-25T03:57:23.971Z,63.26
2018-09-25T03:58:05.933Z,63.30
2018-09-25T03:58:47.955Z,63.38
2018-09-25T03:59:31.033Z,62.92
2018-09-25T04:00:14.014Z,62.84
2018-09-25T04:00:55.863Z,62.48
2018-09-25T04:01:37.965Z,62.36
2018-09-25T04:02:20.706Z,61.95
2018-09-25T04:03:03.791Z,62.43
2018-09-25T04:03:45.919Z,62.59
2018-09-25T04:04:27.980Z,62.24
2018-09-25T04:05:10.498Z,62.41
2018-09-25T04:05:52.466Z,62.38
2018-09-25T04:06:34.355Z,62.36
2018-09-25T04:07:16.264Z,62.34
2018-09-25T04:07:58.135Z,62.33
2018-09-25T04:08:40.041Z,63.39
2018-09-25T04:09:22.015Z,62.80
2018-09-25T04:10:04.922Z,62.93
2018-09-25T04:10:47.530Z,62.44
2018-09-25T04:11:29.693Z,62.67
2018-09-25T04:12:11.589Z,62.32
2018-09-25T04:12:53.635Z,62.21
2018-09-25T04:13:35.507Z,62.26
2018-09-25T04:14:17.447Z,62.59
2018-09-25T04:14:59.388Z,62.40
2018-09-25T04:15:41.675Z,62.29
2018-09-25T04:16:23.504Z,61.48
2018-09-25T04:17:05.819Z,61.84
2018-09-25T04:17:47.820Z,62.07
2018-09-25T04:18:29.759Z,62.10
2018-09-25T04:19:11.747Z,62.21
2018-09-25T04:19:53.658Z,61.91
2018-09-25T04:20:35.735Z,61.34
2018-09-25T04:21:17.630Z,60.94
2018-09-25T04:21:59.511Z,61.65
2018-09-25T04:22:41.566Z,61.97
2018-09-25T04:23:23.524Z,61.46
2018-09-25T04:24:05.431Z,61.00
2018-09-25T04:24:47.294Z,61.92
2018-09-25T04:25:29.125Z,61.82
2018-09-25T04:26:11.030Z,61.51
2018-09-25T04:26:52.921Z,61.09
2018-09-25T04:27:34.927Z,60.31
2018-09-25T04:28:16.990Z,60.93
2018-09-25T04:28:59.171Z,60.92
2018-09-25T04:29:41.271Z,60.43
2018-09-25T04:30:23.716Z,59.86
2018-09-25T04:31:05.886Z,60.34
2018-09-25T04:31:47.758Z,59.99
2018-09-25T04:32:29.648Z,59.01
2018-09-25T04:33:11.696Z,59.13
2018-09-25T04:33:55.087Z,59.95
2018-09-25T04:34:37.294Z,60.05
2018-09-25T04:35:19.278Z,59.65
2018-09-25T04:36:01.239Z,58.81
2018-09-25T04:36:43.200Z,59.09
2018-09-25T04:37:25.126Z,59.15
2018-09-25T04:38:07.038Z,58.81
2018-09-25T04:38:48.786Z,58.71
2018-09-25T04:39:30.620Z,59.04
2018-09-25T04:40:12.519Z,60.04
2018-09-25T04:40:55.255Z,58.85
2018-09-25T04:41:37.255Z,57.95
2018-09-25T04:42:19.132Z,58.99
2018-09-25T04:43:01.096Z,59.13
2018-09-25T04:43:43.023Z,58.58
2018-09-25T04:44:24.879Z,57.84
2018-09-25T04:45:06.830Z,58.33
2018-09-25T04:45:48.832Z,58.26
2018-09-25T04:46:30.692Z,57.74
2018-09-25T04:47:12.915Z,57.67
2018-09-25T04:47:55.899Z,58.59
2018-09-25T04:48:37.878Z,58.63
2018-09-25T04:49:20.101Z,58.43
2018-09-25T04:50:02.082Z,57.92
2018-09-25T04:50:44.144Z,57.38
2018-09-25T04:51:26.092Z,57.76
2018-09-25T04:52:08.020Z,56.34
2018-09-25T04:52:50.048Z,56.75
2018-09-25T04:53:32.132Z,56.39
2018-09-25T04:54:14.082Z,55.67
2018-09-25T04:54:56.119Z,55.34
2018-09-25T04:55:38.197Z,55.48
2018-09-25T04:56:20.955Z,55.64
2018-09-25T04:57:03.136Z,55.96
2018-09-25T04:57:44.994Z,55.60
2018-09-25T04:58:29.045Z,54.48
2018-09-25T04:59:11.096Z,54.99
2018-09-25T04:59:53.227Z,54.05
2018-09-25T05:00:35.336Z,54.36
2018-09-25T05:01:17.559Z,54.77
2018-09-25T05:01:59.552Z,53.68
2018-09-25T05:02:41.671Z,55.02
2018-09-25T05:03:23.972Z,54.95
2018-09-25T05:04:05.967Z,54.64
2018-09-25T05:04:47.861Z,55.10
2018-09-25T05:05:30.112Z,55.98
2018-09-25T05:06:12.235Z,55.86
2018-09-25T05:06:54.108Z,55.29
2018-09-25T05:07:35.905Z,55.20
2018-09-25T05:08:17.856Z,55.21
2018-09-25T05:08:59.782Z,55.67
2018-09-25T05:09:41.901Z,55.46
2018-09-25T05:10:23.928Z,55.25
2018-09-25T05:11:05.958Z,55.06
2018-09-25T05:11:48.146Z,54.87
2018-09-25T05:12:30.298Z,55.78
2018-09-25T05:13:12.403Z,55.35
2018-09-25T05:13:54.476Z,55.29
2018-09-25T05:14:36.680Z,55.96
2018-09-25T05:15:18.641Z,55.76
2018-09-25T05:16:00.896Z,55.72
2018-09-25T05:16:42.738Z,55.29
2018-09-25T05:17:24.787Z,54.99
2018-09-25T05:18:06.883Z,55.53
2018-09-25T05:18:48.881Z,56.28
2018-09-25T05:19:30.813Z,55.83
2018-09-25T05:20:12.923Z,56.02
2018-09-25T05:20:55.122Z,56.46
2018-09-25T05:21:37.404Z,56.42
2018-09-25T05:22:19.407Z,55.62
2018-09-25T05:23:01.387Z,56.22
2018-09-25T05:23:43.511Z,56.28
2018-09-25T05:24:25.404Z,56.74
2018-09-25T05:25:07.602Z,55.71
2018-09-25T05:25:49.565Z,55.89
2018-09-25T05:26:31.376Z,55.77
2018-09-25T05:27:13.518Z,55.64
2018-09-25T05:27:55.491Z,55.85
2018-09-25T05:28:37.562Z,56.57
2018-09-25T05:29:19.643Z,56.09
2018-09-25T05:30:01.823Z,56.48
2018-09-25T05:30:43.794Z,56.16
2018-09-25T05:31:25.727Z,56.35
2018-09-25T05:32:07.773Z,56.38
2018-09-25T05:32:49.687Z,56.16
2018-09-25T05:33:31.570Z,57.10
2018-09-25T05:34:13.480Z,56.51
2018-09-25T05:34:55.684Z,55.21
2018-09-25T05:35:37.543Z,55.90
2018-09-25T05:36:19.526Z,55.70
2018-09-25T05:37:01.962Z,54.82
2018-09-25T05:37:43.845Z,55.14
2018-09-25T05:38:25.727Z,54.32
2018-09-25T05:39:07.831Z,55.28
2018-09-25T05:39:49.779Z,54.11
2018-09-25T05:40:31.611Z,55.00
2018-09-25T05:41:13.727Z,54.10
2018-09-25T05:41:55.612Z,54.28
2018-09-25T05:42:37.691Z,53.68
2018-09-25T05:43:19.944Z,54.46
2018-09-25T05:44:02.087Z,52.88
2018-09-25T05:44:44.029Z,52.90
2018-09-25T05:45:26.046Z,53.47
2018-09-25T05:46:08.047Z,54.06
2018-09-25T05:46:50.084Z,53.31
2018-09-25T05:47:32.078Z,53.43
2018-09-25T05:48:14.043Z,53.88
2018-09-25T05:48:56.110Z,53.83
2018-09-25T05:49:38.229Z,53.69
2018-09-25T05:50:20.827Z,54.22
2018-09-25T05:51:02.797Z,54.41
2018-09-25T05:51:44.744Z,54.32
2018-09-25T05:52:26.969Z,54.49
2018-09-25T05:53:08.865Z,53.54
2018-09-25T05:53:50.949Z,53.33
2018-09-25T05:54:32.816Z,53.75
2018-09-25T05:55:14.889Z,55.09
2018-09-25T05:55:57.345Z,55.47
2018-09-25T05:56:39.425Z,55.10
2018-09-25T05:57:21.412Z,56.09
2018-09-25T05:58:03.448Z,55.39
2018-09-25T05:58:45.552Z,55.57
2018-09-25T05:59:27.678Z,56.25
2018-09-25T06:00:09.604Z,56.88
2018-09-25T06:00:51.664Z,57.28
2018-09-25T06:01:34.074Z,56.48
2018-09-25T06:02:16.209Z,56.35
2018-09-25T06:02:58.188Z,57.39
2018-09-25T06:03:40.514Z,56.58
2018-09-25T06:04:22.438Z,57.40
2018-09-25T06:05:04.423Z,56.95
2018-09-25T06:05:46.392Z,57.19
2018-09-25T06:06:28.503Z,58.26
2018-09-25T06:07:10.400Z,57.12
2018-09-25T06:07:52.513Z,57.36
2018-09-25T06:08:35.497Z,57.47
2018-09-25T06:09:17.541Z,57.16
2018-09-25T06:09:59.605Z,57.68
2018-09-25T06:10:42.103Z,57.48
2018-09-25T06:11:24.060Z,58.66
2018-09-25T06:12:05.927Z,58.29
2018-09-25T06:12:47.947Z,57.25
2018-09-25T06:13:29.933Z,58.30
2018-09-25T06:14:12.488Z,57.87
2018-09-25T06:14:54.633Z,58.40
2018-09-25T06:15:37.605Z,57.82
2018-09-25T06:16:19.569Z,58.04
2018-09-25T06:17:01.551Z,57.68
2018-09-25T06:17:43.447Z,57.04
2018-09-25T06:18:25.488Z,57.48
2018-09-25T06:19:07.446Z,57.29
2018-09-25T06:19:49.408Z,58.06
2018-09-25T06:20:31.338Z,58.33
2018-09-25T06:21:13.267Z,57.90
2018-09-25T06:21:55.536Z,57.78
2018-09-25T06:22:37.471Z,58.48
2018-09-25T06:23:19.530Z,57.84
2018-09-25T06:24:01.695Z,57.94
2018-09-25T06:24:43.681Z,58.24
2018-09-25T06:25:25.585Z,58.29
2018-09-25T06:26:07.499Z,58.52
2018-09-25T06:26:50.620Z,58.04
2018-09-25T06:27:32.742Z,58.84
2018-09-25T06:28:14.746Z,58.11
2018-09-25T06:28:56.832Z,57.93
2018-09-25T06:29:39.120Z,58.43
2018-09-25T06:30:21.246Z,58.79
2018-09-25T06:31:03.249Z,58.95
2018-09-25T06:31:45.130Z,58.47
2018-09-25T06:32:27.134Z,58.74
2018-09-25T06:33:09.179Z,60.20
2018-09-25T06:33:51.214Z,59.74
2018-09-25T06:34:33.059Z,59.22
2018-09-25T06:35:15.144Z,59.33
2018-09-25T06:35:57.929Z,59.08
2018-09-25T06:36:40.067Z,59.44
2018-09-25T06:37:22.044Z,59.10
2018-09-25T06:38:04.234Z,60.07
2018-09-25T06:38:46.106Z,60.12
2018-09-25T06:39:29.493Z,59.85
2018-09-25T06:40:11.726Z,59.11
2018-09-25T06:40:53.734Z,59.24
2018-09-25T06:41:35.943Z,59.45
2018-09-25T06:42:17.844Z,59.25
2018-09-25T06:43:00.239Z,58.32
2018-09-25T06:43:42.160Z,58.07
2018-09-25T06:44:24.364Z,58.95
2018-09-25T06:45:06.352Z,57.55
2018-09-25T06:45:48.316Z,58.05
2018-09-25T06:46:30.449Z,57.14
2018-09-25T06:47:12.567Z,58.37
2018-09-25T06:47:54.587Z,58.67
2018-09-25T06:48:36.552Z,59.06
2018-09-25T06:49:18.573Z,58.06
2018-09-25T06:50:00.469Z,58.59
2018-09-25T06:50:42.510Z,59.40
2018-09-25T06:51:24.409Z,58.38
2018-09-25T06:52:06.409Z,58.37
2018-09-25T06:52:48.304Z,58.69
2018-09-25T06:53:30.475Z,59.24
2018-09-25T06:54:12.431Z,59.36
2018-09-25T06:54:54.497Z,59.44
2018-09-25T06:55:36.685Z,59.17
2018-09-25T06:56:18.782Z,59.32
2018-09-25T06:57:00.743Z,58.57
2018-09-25T06:57:42.801Z,59.51
2018-09-25T06:58:25.604Z,58.75
2018-09-25T06:59:07.800Z,59.16
2018-09-25T06:59:49.927Z,58.92
2018-09-25T07:00:31.917Z,59.13
2018-09-25T07:01:14.026Z,59.98
2018-09-25T07:01:56.039Z,59.25
2018-09-25T07:02:37.985Z,59.33
2018-09-25T07:03:19.975Z,60.13
2018-09-25T07:04:01.905Z,59.25
2018-09-25T07:04:43.716Z,59.98
2018-09-25T07:05:25.829Z,59.47
2018-09-25T07:06:08.026Z,60.03
2018-09-25T07:06:50.005Z,59.37
2018-09-25T07:07:32.216Z,59.41
2018-09-25T07:08:14.473Z,60.70
2018-09-25T07:08:56.431Z,60.22
2018-09-25T07:09:39.096Z,60.27
2018-09-25T07:10:21.118Z,60.59
2018-09-25T07:11:03.110Z,59.84
2018-09-25T07:11:45.036Z,59.82
2018-09-25T07:12:26.947Z,61.02
2018-09-25T07:13:08.809Z,60.64
2018-09-25T07:13:50.668Z,61.01
2018-09-25T07:14:32.582Z,60.30
2018-09-25T07:15:14.552Z,60.71
2018-09-25T07:15:56.437Z,60.44
2018-09-25T07:16:38.484Z,61.20
2018-09-25T07:17:20.411Z,60.60
2018-09-25T07:18:02.364Z,61.31
2018-09-25T07:18:44.523Z,60.78
2018-09-25T07:19:26.461Z,61.30
2018-09-25T07:20:08.508Z,61.68
2018-09-25T07:20:50.623Z,60.82
2018-09-25T07:21:32.611Z,61.64
2018-09-25T07:22:14.602Z,60.86
2018-09-25T07:22:56.534Z,61.87
2018-09-25T07:23:38.489Z,62.15
2018-09-25T07:24:21.150Z,61.99
2018-09-25T07:25:03.136Z,61.85
2018-09-25T07:25:45.451Z,62.36
2018-09-25T07:26:27.651Z,62.46
2018-09-25T07:27:09.708Z,62.42
2018-09-25T07:27:51.577Z,62.28
2018-09-25T07:28:34.576Z,62.66
2018-09-25T07:29:17.645Z,61.92
2018-09-25T07:29:59.766Z,62.33
2018-09-25T07:30:41.688Z,62.11
2018-09-25T07:31:23.589Z,62.91
2018-09-25T07:32:05.446Z,62.16
2018-09-25T07:32:47.260Z,63.03
2018-09-25T07:33:29.226Z,62.72
2018-09-25T07:34:11.368Z,61.77
2018-09-25T07:34:53.276Z,62.30
2018-09-25T07:35:35.696Z,62.05
2018-09-25T07:36:17.648Z,62.10
2018-09-25T07:36:59.573Z,62.12
2018-09-25T07:37:41.617Z,61.64
2018-09-25T07:38:23.521Z,61.95
2018-09-25T07:39:05.669Z,62.04
2018-09-25T07:39:47.763Z,61.93
2018-09-25T07:40:30.016Z,61.04
2018-09-25T07:41:12.050Z,61.97
2018-09-25T07:41:54.087Z,61.94
2018-09-25T07:42:36.067Z,61.91
2018-09-25T07:43:18.143Z,61.53
2018-09-25T07:44:00.120Z,61.27
2018-09-25T07:44:42.035Z,61.77
2018-09-25T07:45:24.036Z,61.88
2018-09-25T07:46:06.023Z,61.42
2018-09-25T07:46:48.752Z,61.26
2018-09-25T07:47:34.656Z,61.87
2018-09-25T07:48:17.588Z,61.68
2018-09-25T07:48:59.597Z,61.03
2018-09-25T07:49:41.708Z,62.15
2018-09-25T07:50:23.866Z,62.18
2018-09-25T07:51:06.272Z,61.83
2018-09-25T07:51:49.214Z,61.19
2018-09-25T07:52:31.096Z,62.21
2018-09-25T07:53:13.112Z,62.07
2018-09-25T07:53:55.220Z,61.06
2018-09-25T07:54:37.170Z,61.65
2018-09-25T07:55:19.260Z,60.92
2018-09-25T07:56:01.280Z,60.26
2018-09-25T07:56:43.205Z,60.03
2018-09-25T07:57:25.295Z,60.25
2018-09-25T07:58:08.056Z,59.72
2018-09-25T07:58:50.125Z,59.38
2018-09-25T07:59:32.019Z,60.00
2018-09-25T08:00:14.100Z,58.99
2018-09-25T08:00:55.993Z,58.99
2018-09-25T08:01:37.811Z,59.69
2018-09-25T08:02:20.858Z,59.09
2018-09-25T08:03:02.899Z,59.14
2018-09-25T08:03:47.275Z,59.96
2018-09-25T08:04:30.272Z,58.93
2018-09-25T08:05:12.583Z,58.87
2018-09-25T08:05:54.509Z,60.05
2018-09-25T08:06:36.326Z,59.65
2018-09-25T08:07:18.227Z,59.97
2018-09-25T08:08:01.205Z,59.01
2018-09-25T08:08:43.012Z,59.01
2018-09-25T08:09:26.078Z,58.96
2018-09-25T08:10:07.921Z,58.96
2018-09-25T08:10:50.065Z,60.20
2018-09-25T08:11:31.966Z,59.80
2018-09-25T08:12:14.188Z,59.57
2018-09-25T08:12:56.067Z,58.54
2018-09-25T08:13:38.214Z,59.38
2018-09-25T08:14:20.650Z,58.55
2018-09-25T08:15:02.528Z,58.95
2018-09-25T08:15:46.262Z,59.32
2018-09-25T08:16:28.311Z,58.66
2018-09-25T08:17:10.177Z,59.26
2018-09-25T08:17:52.106Z,58.75
2018-09-25T08:18:34.532Z,58.77
2018-09-25T08:19:21.604Z,59.00
2018-09-25T08:20:04.222Z,58.51
2018-09-25T08:20:46.080Z,58.23
2018-09-25T08:21:28.027Z,58.53
2018-09-25T08:22:10.024Z,58.37
2018-09-25T08:22:52.034Z,58.37
2018-09-25T08:23:34.127Z,58.72
2018-09-25T08:24:16.080Z,58.60
2018-09-25T08:24:57.960Z,57.93
2018-09-25T08:25:39.984Z,58.16
2018-09-25T08:26:22.048Z,57.77
2018-09-25T08:27:03.965Z,57.14
2018-09-25T08:27:46.186Z,57.44
2018-09-25T08:28:29.162Z,57.10
2018-09-25T08:29:11.432Z,58.04
2018-09-25T08:29:53.365Z,57.51
2018-09-25T08:30:37.387Z,57.05
2018-09-25T08:31:19.270Z,57.57
2018-09-25T08:32:02.285Z,57.44
2018-09-25T08:32:44.984Z,57.00
2018-09-25T08:33:27.654Z,57.52
2018-09-25T08:34:19.436Z,56.68
2018-09-25T08:35:01.921Z,57.22
2018-09-25T08:35:44.018Z,57.43
2018-09-25T08:36:26.031Z,56.59
2018-09-25T08:37:08.038Z,56.89
2018-09-25T08:37:50.227Z,57.22
2018-09-25T08:38:32.212Z,57.63
2018-09-25T08:39:16.847Z,58.08
2018-09-25T08:39:58.938Z,57.30
2018-09-25T08:40:40.984Z,57.58
2018-09-25T08:41:23.043Z,57.61
2018-09-25T08:42:04.996Z,58.53
2018-09-25T08:42:46.906Z,58.22
2018-09-25T08:43:28.851Z,57.72
2018-09-25T08:44:10.850Z,57.89
2018-09-25T08:44:52.876Z,57.72
2018-09-25T08:45:34.817Z,58.09
2018-09-25T08:46:16.999Z,57.07
2018-09-25T08:46:59.170Z,57.44
2018-09-25T08:47:41.145Z,56.58
2018-09-25T08:48:23.346Z,56.13
2018-09-25T08:49:05.247Z,57.09
2018-09-25T08:49:48.348Z,57.46
2018-09-25T08:50:30.435Z,56.46
2018-09-25T08:51:12.400Z,57.27
2018-09-25T08:51:54.536Z,57.53
2018-09-25T08:52:36.559Z,57.05
2018-09-25T08:53:18.496Z,56.28
2018-09-25T08:54:00.789Z,57.40
2018-09-25T08:54:42.609Z,56.83
2018-09-25T08:55:24.513Z,56.59
2018-09-25T08:56:06.452Z,57.27
2018-09-25T08:56:48.473Z,56.99
2018-09-25T08:57:30.416Z,57.69
2018-09-25T08:58:12.108Z,56.07
2018-09-25T08:58:54.341Z,57.26
2018-09-25T08:59:36.548Z,57.25
2018-09-25T09:00:18.404Z,58.11
2018-09-25T09:01:00.438Z,57.09
2018-09-25T09:01:42.684Z,57.86
2018-09-25T09:02:24.759Z,56.86
2018-09-25T09:03:06.882Z,57.68
2018-09-25T09:03:48.837Z,57.49
2018-09-25T09:04:31.404Z,56.93
2018-09-25T09:05:13.290Z,57.46